Portada
METAR-TAF:

METAR-TAF

Aeroports :

São José do Rio Preto, São Paulo, Brasil

latitud: 20-48-58S, longitud: 049-24-17W, altitud: 543 m

Observació

L'informe es va fer fa 1 hora i 20 minuts, a les 23:00 UTC
Vent calma
Temperatura 27°C
Humitat 24%
Pressió 1013 hPa
Visibilitat 10 km o més
Escasses núvols a una alçada de 3500 ft

METAR: SBSR 122300Z 00000KT 9999 FEW035 27/05 Q1013

Hora: 21:20 (00:20 UTC)


TAF: manca

Observacions i pronòstics meteorològics de més de 4000 aeroports (METAR i TAF).

Les estacions disponibles són els punts grocs i vermells al mapa.

Posi el ratolí al punt desitjat per veure el nom de l'estació.

Feu clic per veure les observacions i els pronòstics meteorològics.

Per canviar el mapa: feu clic els botons verds amb una creu de color negre per apropar; al botó verd amb un guió per allunyar la imatge; o en les fletxes verdes per a mapes adjacents.


METAR-TAF: